Time;durP1;ratioP1;P1;durP2;ratioP2;P2;SDS_P1;SDS_P2;PMS_P1;PMS_P2;Temp;Humidity;BMP_temperature;BMP_pressure;BME280_temperature;BME280_humidity;BME280_pressure;Samples;Min_cycle;Max_cycle;Signal;HPM_P1;HPM_P2
2021/01/26 00:01:22;;;;;;;;;6.00;6.00;;;;;9.02;77.04;100078.19;6243624;23;11441;-71
2021/01/26 00:04:05;;;;;;;;;9.25;8.00;;;;;9.02;77.04;100082.91;6248387;23;11408;-70
2021/01/26 00:06:34;;;;;;;;;7.00;7.00;;;;;8.78;76.23;100083.56;6256269;23;11386;-70
2021/01/26 00:09:15;;;;;;;;;6.50;6.50;;;;;8.89;75.28;100093.88;6247426;23;11397;-70
2021/01/26 00:11:43;;;;;;;;;5.50;5.50;;;;;8.85;74.57;100092.09;6229629;23;11385;-71
2021/01/26 00:14:24;;;;;;;;;8.75;8.00;;;;;8.72;75.03;100090.38;6224025;23;11450;-70
2021/01/26 00:17:20;;;;;;;;;7.00;7.00;;;;;8.66;74.67;100075.97;6245868;23;11387;-71
2021/01/26 00:20:10;;;;;;;;;8.00;8.00;;;;;8.82;73.99;100081.75;6247029;23;11384;-70
2021/01/26 00:22:45;;;;;;;;;10.75;10.75;;;;;8.86;73.75;100082.69;6256071;23;11377;-70
2021/01/26 00:25:41;;;;;;;;;6.25;6.25;;;;;8.77;73.87;100087.44;6245329;23;11394;-71
2021/01/26 00:28:37;;;;;;;;;10.00;10.00;;;;;8.88;73.38;100094.19;6245746;23;11436;-71
2021/01/26 00:31:32;;;;;;;;;7.00;7.00;;;;;8.74;72.96;100094.44;6245595;23;11472;-71
2021/01/26 00:34:01;;;;;;;;;7.00;6.50;;;;;8.72;72.43;100107.72;6255987;23;11366;-71
2021/01/26 00:36:29;;;;;;;;;3.00;3.00;;;;;8.55;72.56;100107.81;6255423;23;11364;-71
2021/01/26 00:39:24;;;;;;;;;11.25;11.25;;;;;8.48;73.59;100100.06;6245347;23;11363;-71
2021/01/26 00:42:09;;;;;;;;;9.25;9.25;;;;;8.13;73.32;100110.41;6247654;23;11491;-70
2021/01/26 00:44:37;;;;;;;;;11.25;11.25;;;;;8.19;73.42;100100.78;6254242;23;11382;-70
2021/01/26 00:47:04;;;;;;;;;7.50;7.00;;;;;8.29;72.82;100111.47;6253821;23;11402;-70
2021/01/26 00:49:31;;;;;;;;;7.00;7.00;;;;;8.25;73.14;100107.75;6254317;23;11451;-71
2021/01/26 00:52:26;;;;;;;;;6.50;6.50;;;;;8.17;73.11;100129.81;6244421;23;11468;-70
2021/01/26 00:55:14;;;;;;;;;9.50;9.00;;;;;8.07;73.47;100134.53;6245095;23;11385;-70
2021/01/26 00:57:51;;;;;;;;;10.25;9.00;;;;;8.01;73.19;100133.09;6254132;23;12122;-70
2021/01/26 01:00:46;;;;;;;;;10.00;10.00;;;;;8.11;73.44;100144.88;6244408;23;11389;-70
2021/01/26 01:03:42;;;;;;;;;10.00;10.00;;;;;8.14;72.97;100160.78;6223397;23;12263;-70
2021/01/26 01:06:09;;;;;;;;;7.00;7.00;;;;;7.98;72.99;100154.97;6254158;23;11436;-70
2021/01/26 01:08:37;;;;;;;;;8.50;8.50;;;;;7.89;72.72;100152.22;6254210;23;11452;-70
2021/01/26 01:11:32;;;;;;;;;13.75;13.25;;;;;7.97;72.75;100148.63;6243969;23;11382;-70
2021/01/26 01:14:28;;;;;;;;;7.50;7.50;;;;;7.73;73.11;100153.84;6244493;23;11595;-71
2021/01/26 01:16:55;;;;;;;;;10.00;8.75;;;;;8.04;72.18;100167.41;6219178;23;11464;-70
2021/01/26 01:19:23;;;;;;;;;7.25;7.25;;;;;7.93;72.63;100169.72;6255377;23;11443;-71
2021/01/26 01:21:50;;;;;;;;;7.75;7.75;;;;;7.85;72.77;100173.28;6228872;23;11383;-70
2021/01/26 01:24:18;;;;;;;;;8.00;7.50;;;;;7.73;72.95;100184.13;6255349;23;11456;-70
2021/01/26 01:26:46;;;;;;;;;9.25;9.25;;;;;7.83;72.57;100192.06;6255322;23;11426;-71
2021/01/26 01:29:31;;;;;;;;;7.25;7.25;;;;;7.77;72.93;100179.59;6246813;23;11458;-70
2021/01/26 01:31:59;;;;;;;;;6.25;6.25;;;;;7.65;73.58;100177.47;6255033;23;12213;-71
2021/01/26 01:34:30;;;;;;;;;10.50;10.50;;;;;7.85;72.49;100194.50;6255274;23;11429;-70
2021/01/26 01:37:26;;;;;;;;;10.75;10.75;;;;;7.69;73.25;100185.91;6245155;23;11454;-70
2021/01/26 01:39:54;;;;;;;;;10.75;10.75;;;;;7.79;72.77;100189.16;6255585;23;11505;-71
2021/01/26 01:42:50;;;;;;;;;3.00;3.00;;;;;7.75;72.76;100206.66;6243967;23;11451;-71
2021/01/26 01:45:47;;;;;;;;;7.00;7.00;;;;;7.82;72.96;100220.75;6244631;23;11431;-71
2021/01/26 01:48:28;;;;;;;;;9.00;9.00;;;;;7.73;73.14;100248.25;6254924;23;12211;-70
2021/01/26 01:51:26;;;;;;;;;9.25;9.25;;;;;7.65;73.62;100243.53;6246042;23;11406;-70
2021/01/26 01:54:01;;;;;;;;;6.00;6.00;;;;;7.31;72.78;100249.78;6255131;23;11446;-71
2021/01/26 01:57:02;;;;;;;;;3.00;3.00;;;;;7.35;71.17;100248.00;6245053;23;12090;-71
2021/01/26 02:00:03;;;;;;;;;3.00;3.00;;;;;7.04;71.50;100277.50;6244341;23;11548;-70
2021/01/26 02:03:03;;;;;;;;;1.50;1.50;;;;;7.01;71.32;100265.22;6230780;23;11523;-70
2021/01/26 02:05:53;;;;;;;;;1.00;1.00;;;;;6.95;71.29;100280.22;6232054;23;11452;-70
2021/01/26 02:09:06;;;;;;;;;1.00;1.00;;;;;6.94;71.34;100284.09;6245961;23;11363;-70
2021/01/26 02:11:50;;;;;;;;;1.00;1.00;;;;;6.92;71.15;100300.13;6246118;23;11429;-71
2021/01/26 02:14:51;;;;;;;;;2.00;2.00;;;;;6.92;71.45;100308.38;6244472;23;11425;-70
2021/01/26 02:18:18;;;;;;;;;1.00;1.00;;;;;6.65;71.51;100334.88;6244275;23;12314;-70
2021/01/26 02:21:37;;;;;;;;;1.00;1.00;;;;;6.64;70.38;100318.69;6254810;23;11421;-71
2021/01/26 02:24:07;;;;;;;;;1.00;1.00;;;;;6.62;70.87;100312.72;6254676;23;11432;-70
2021/01/26 02:27:09;;;;;;;;;0.00;0.00;;;;;6.31;71.58;100335.44;6254338;23;12212;-70
2021/01/26 02:30:29;;;;;;;;;1.25;1.25;;;;;6.36;71.41;100348.22;6244359;23;11470;-71
2021/01/26 02:33:06;;;;;;;;;1.00;1.00;;;;;6.42;71.18;100349.72;6254928;23;11444;-71
2021/01/26 02:35:52;;;;;;;;;1.00;1.00;;;;;6.01;71.66;100363.59;6254732;23;11510;-70
2021/01/26 02:38:39;;;;;;;;;2.00;2.00;;;;;6.45;70.76;100365.59;6245945;23;11443;-71
2021/01/26 02:41:34;;;;;;;;;0.00;0.00;;;;;6.55;70.33;100386.53;6255012;23;11512;-70
2021/01/26 02:45:08;;;;;;;;;0.50;0.50;;;;;6.58;70.46;100383.13;6245185;23;11445;-70
2021/01/26 02:48:12;;;;;;;;;1.00;1.00;;;;;6.58;70.64;100394.94;6124088;23;11479;-70
2021/01/26 02:50:48;;;;;;;;;1.00;1.00;;;;;6.59;70.82;100404.81;6131892;23;11535;-70
2021/01/26 02:53:38;;;;;;;;;2.00;2.00;;;;;6.63;70.38;100414.06;6224560;23;11510;-70
2021/01/26 02:56:12;;;;;;;;;1.50;1.50;;;;;6.60;70.40;100419.38;6254575;23;11458;-70
2021/01/26 02:59:29;;;;;;;;;1.50;1.50;;;;;6.76;69.76;100428.06;6243331;23;11493;-70
2021/01/26 03:02:06;;;;;;;;;2.00;2.00;;;;;6.36;70.72;100425.13;6227899;23;11423;-70
2021/01/26 03:05:10;;;;;;;;;2.75;2.75;;;;;6.64;70.50;100420.38;6244025;23;11453;-70
2021/01/26 03:07:44;;;;;;;;;2.25;2.25;;;;;6.59;70.79;100431.47;6254777;23;11507;-70
2021/01/26 03:10:18;;;;;;;;;1.00;1.00;;;;;6.61;70.72;100427.31;6254813;23;11445;-71
2021/01/26 03:13:00;;;;;;;;;2.50;2.50;;;;;6.63;70.92;100437.97;6254411;23;12081;-70
2021/01/26 03:16:06;;;;;;;;;2.00;2.00;;;;;6.66;70.72;100429.91;6245073;23;11531;-70
2021/01/26 03:18:49;;;;;;;;;2.00;2.00;;;;;6.58;70.97;100432.59;6254518;23;11428;-70
2021/01/26 03:21:19;;;;;;;;;2.75;2.75;;;;;6.75;70.36;100442.91;6254456;23;12094;-70
2021/01/26 03:24:12;;;;;;;;;3.75;3.75;;;;;6.64;70.96;100451.41;6222500;23;11446;-70
2021/01/26 03:27:21;;;;;;;;;3.00;2.00;;;;;6.40;71.30;100459.91;6244686;23;11462;-70
2021/01/26 03:30:17;;;;;;;;;2.00;2.00;;;;;6.16;72.02;100450.31;6253950;23;11425;-70
2021/01/26 03:32:51;;;;;;;;;2.00;2.00;;;;;6.37;71.38;100463.28;6254459;23;12147;-70
2021/01/26 03:35:19;;;;;;;;;1.25;1.25;;;;;6.36;70.83;100464.41;6245401;23;11429;-70
2021/01/26 03:38:19;;;;;;;;;4.00;4.00;;;;;6.33;71.46;100454.03;6243865;23;11510;-70
2021/01/26 03:41:15;;;;;;;;;3.75;3.75;;;;;6.23;71.19;100464.44;6245191;22;11428;-70
2021/01/26 03:44:12;;;;;;;;;2.00;2.00;;;;;6.33;71.02;100462.28;6243932;23;11510;-70
2021/01/26 03:47:55;;;;;;;;;4.25;4.25;;;;;6.25;70.81;100482.22;6243969;23;11453;-70
2021/01/26 03:51:02;;;;;;;;;3.00;3.00;;;;;6.37;70.47;100476.22;6208236;23;11437;-70
2021/01/26 03:54:20;;;;;;;;;1.00;1.00;;;;;6.44;70.01;100486.75;6243744;23;12207;-70
2021/01/26 03:57:26;;;;;;;;;4.00;2.00;;;;;6.41;70.31;100489.00;6254154;23;11515;-70
2021/01/26 04:00:25;;;;;;;;;1.75;1.75;;;;;6.41;70.42;100482.72;6243587;23;11435;-70
2021/01/26 04:03:35;;;;;;;;;1.00;1.00;;;;;6.27;70.48;100485.47;6243667;23;11396;-70
2021/01/26 04:06:10;;;;;;;;;2.00;2.00;;;;;6.34;70.46;100499.59;6252740;23;11496;-70
2021/01/26 04:09:10;;;;;;;;;2.00;2.00;;;;;6.48;70.25;100510.56;6243630;23;11444;-71
2021/01/26 04:12:14;;;;;;;;;1.00;1.00;;;;;6.45;69.79;100516.69;6243321;23;11449;-70
2021/01/26 04:15:15;;;;;;;;;3.75;3.75;;;;;6.38;70.42;100528.09;6244884;22;11510;-70
2021/01/26 04:18:18;;;;;;;;;1.00;1.00;;;;;6.40;70.68;100538.78;6243683;23;11432;-70
2021/01/26 04:21:15;;;;;;;;;3.75;3.75;;;;;6.39;70.34;100561.88;6243604;23;11432;-71
2021/01/26 04:24:10;;;;;;;;;2.00;2.00;;;;;6.38;70.45;100558.31;6223735;23;12209;-71
2021/01/26 04:27:18;;;;;;;;;1.75;1.75;;;;;6.34;70.53;100567.47;6243656;23;12213;-71
2021/01/26 04:30:15;;;;;;;;;4.25;4.25;;;;;6.29;70.70;100562.91;6243453;23;11419;-71
2021/01/26 04:32:42;;;;;;;;;4.00;4.00;;;;;6.27;71.09;100580.78;6253863;23;11401;-71
2021/01/26 04:35:11;;;;;;;;;1.75;1.75;;;;;6.23;71.19;100588.00;6253766;23;11523;-70
2021/01/26 04:37:46;;;;;;;;;4.50;4.50;;;;;6.23;71.42;100591.56;6253808;23;12087;-70
2021/01/26 04:40:14;;;;;;;;;4.00;4.00;;;;;6.25;70.98;100594.00;6253971;23;11423;-71
2021/01/26 04:42:41;;;;;;;;;4.00;4.00;;;;;6.28;70.84;100607.13;6253995;23;11440;-71
2021/01/26 04:45:15;;;;;;;;;2.00;2.00;;;;;6.22;71.02;100605.63;6227474;23;11422;-71
2021/01/26 04:48:21;;;;;;;;;2.75;2.75;;;;;6.15;71.54;100614.25;6253906;23;11483;-71
2021/01/26 04:51:15;;;;;;;;;2.00;2.00;;;;;6.04;71.61;100619.09;6125075;23;11491;-71
2021/01/26 04:54:09;;;;;;;;;4.50;4.50;;;;;5.92;72.40;100618.78;6230876;23;11426;-71
2021/01/26 04:57:51;;;;;;;;;2.00;2.00;;;;;6.07;71.53;100626.75;6246896;23;11441;-71
2021/01/26 05:00:55;;;;;;;;;5.25;4.00;;;;;6.16;71.03;100634.28;6144508;23;11560;-71
2021/01/26 05:03:32;;;;;;;;;2.00;2.00;;;;;6.09;71.41;100646.47;6246768;22;11492;-71
2021/01/26 05:06:04;;;;;;;;;4.00;4.00;;;;;6.02;71.84;100662.50;6255400;23;11484;-71
2021/01/26 05:08:51;;;;;;;;;5.00;5.00;;;;;6.08;71.28;100669.56;6247157;22;11472;-70
2021/01/26 05:11:25;;;;;;;;;5.75;5.75;;;;;6.11;71.45;100671.69;6255101;22;11491;-70
2021/01/26 05:13:58;;;;;;;;;5.00;5.00;;;;;6.05;71.76;100694.03;6255190;22;11459;-70
2021/01/26 05:16:43;;;;;;;;;7.00;7.00;;;;;5.87;72.39;100701.16;6246540;22;12170;-71
2021/01/26 05:19:55;;;;;;;;;4.00;4.00;;;;;5.89;72.81;100701.66;6253856;23;11453;-71
2021/01/26 05:22:37;;;;;;;;;4.75;4.75;;;;;6.01;72.25;100728.72;6255373;22;11488;-71
2021/01/26 05:25:11;;;;;;;;;5.00;5.00;;;;;5.88;72.81;100722.00;6253988;23;11468;-72
2021/01/26 05:27:43;;;;;;;;;3.00;3.00;;;;;5.98;72.60;100721.06;6255404;22;11484;-71
2021/01/26 05:30:18;;;;;;;;;4.50;4.50;;;;;6.03;72.50;100727.28;6255258;22;11546;-71
2021/01/26 05:33:06;;;;;;;;;4.00;4.00;;;;;5.99;72.95;100733.69;6255377;23;11493;-71
2021/01/26 05:35:57;;;;;;;;;4.00;4.00;;;;;6.04;72.98;100733.59;6246191;23;11454;-74
2021/01/26 05:38:25;;;;;;;;;2.00;2.00;;;;;5.95;73.13;100740.88;6253923;23;11460;-74
2021/01/26 05:41:06;;;;;;;;;2.00;2.00;;;;;5.99;73.14;100737.25;6254529;23;11447;-74
2021/01/26 05:43:35;;;;;;;;;4.25;4.25;;;;;5.96;73.33;100746.06;6246214;22;11472;-72
2021/01/26 05:46:07;;;;;;;;;3.75;3.75;;;;;5.90;73.95;100757.38;6254928;22;11478;-74
2021/01/26 05:48:49;;;;;;;;;4.00;4.00;;;;;6.13;73.04;100770.22;6244317;23;11558;-74
2021/01/26 05:51:23;;;;;;;;;4.00;4.00;;;;;6.17;73.02;100773.22;6255014;22;11531;-74
2021/01/26 05:53:58;;;;;;;;;5.00;5.00;;;;;6.11;73.33;100773.28;6278366;22;11466;-74
2021/01/26 05:56:27;;;;;;;;;4.75;4.75;;;;;6.22;73.01;100782.19;6254793;22;11494;-75
2021/01/26 05:58:55;;;;;;;;;4.75;4.75;;;;;6.24;72.63;100793.69;6278583;22;11468;-75
2021/01/26 06:01:30;;;;;;;;;3.75;3.75;;;;;6.28;72.58;100802.94;6245846;23;11440;-75
2021/01/26 06:04:14;;;;;;;;;5.25;5.25;;;;;6.34;72.62;100778.97;6219709;23;11562;-75
2021/01/26 06:06:49;;;;;;;;;2.25;2.25;;;;;6.41;72.51;100788.44;6255025;23;11446;-74
2021/01/26 06:09:41;;;;;;;;;4.25;4.25;;;;;6.44;72.99;100777.97;6229745;23;11461;-74
2021/01/26 06:12:54;;;;;;;;;4.00;4.00;;;;;6.53;72.17;100777.00;6243142;23;11450;-74
2021/01/26 06:15:43;;;;;;;;;5.50;5.50;;;;;6.45;72.92;100777.69;6246719;23;11521;-73
2021/01/26 06:18:20;;;;;;;;;1.00;1.00;;;;;6.50;73.28;100794.06;6255092;23;11456;-73
2021/01/26 06:21:05;;;;;;;;;6.50;6.50;;;;;6.69;72.65;100796.78;6254891;23;12176;-73
2021/01/26 06:23:34;;;;;;;;;5.00;5.00;;;;;6.73;72.58;100806.03;6255000;23;11425;-75
2021/01/26 06:26:08;;;;;;;;;3.50;3.50;;;;;6.83;72.67;100816.06;6254775;23;11420;-75
2021/01/26 06:29:24;;;;;;;;;5.00;5.00;;;;;6.76;72.55;100815.63;6254835;23;11433;-75
2021/01/26 06:32:23;;;;;;;;;7.50;6.00;;;;;6.94;72.22;100807.28;6093827;23;11651;-70
2021/01/26 06:35:45;;;;;;;;;6.50;6.50;;;;;7.02;71.47;100814.03;6102716;23;11565;-71
2021/01/26 06:38:51;;;;;;;;;5.50;5.50;;;;;7.02;71.07;100822.28;6211311;23;11459;-71
2021/01/26 06:41:18;;;;;;;;;6.25;6.25;;;;;6.88;71.95;100822.25;6254378;23;11552;-69
2021/01/26 06:44:23;;;;;;;;;6.75;6.75;;;;;7.07;71.26;100813.13;6244830;23;11441;-70
2021/01/26 06:47:49;;;;;;;;;6.25;6.25;;;;;7.02;70.92;100799.47;6245536;23;11447;-70
2021/01/26 06:50:49;;;;;;;;;7.25;6.00;;;;;7.20;70.39;100812.28;6123696;23;11477;-70
2021/01/26 06:53:39;;;;;;;;;7.50;7.50;;;;;7.12;70.77;100816.56;6233297;23;11392;-70
2021/01/26 06:56:26;;;;;;;;;6.75;6.75;;;;;7.17;70.35;100812.91;6221969;23;11446;-70
2021/01/26 06:59:25;;;;;;;;;5.00;5.00;;;;;7.26;70.12;100813.84;6245531;23;11446;-70
2021/01/26 07:02:24;;;;;;;;;5.75;5.75;;;;;7.26;70.20;100813.84;6254588;23;11505;-70
2021/01/26 07:05:37;;;;;;;;;11.25;7.50;;;;;7.33;69.40;100828.00;6253944;23;11434;-70
2021/01/26 07:08:49;;;;;;;;;10.00;9.00;;;;;7.47;70.02;100837.06;6254473;23;11436;-70
2021/01/26 07:11:32;;;;;;;;;6.50;6.50;;;;;7.42;69.87;100844.59;6254368;23;11510;-69
2021/01/26 07:14:38;;;;;;;;;8.00;7.00;;;;;7.43;69.02;100858.06;6254528;23;11493;-69
2021/01/26 07:17:07;;;;;;;;;8.00;8.00;;;;;7.36;68.67;100854.91;6254245;23;11439;-69
2021/01/26 07:19:43;;;;;;;;;10.25;10.00;;;;;7.39;69.21;100862.56;6245250;23;11431;-69
2021/01/26 07:22:52;;;;;;;;;13.25;7.50;;;;;7.45;69.10;100877.03;6254431;23;11445;-70
2021/01/26 07:25:22;;;;;;;;;9.50;9.50;;;;;7.49;68.29;100876.09;6227432;23;11473;-70
2021/01/26 07:28:07;;;;;;;;;17.50;16.00;;;;;7.22;68.97;100884.34;6254106;23;11487;-75
2021/01/26 07:30:48;;;;;;;;;9.75;9.75;;;;;7.47;68.87;100883.84;6254276;23;11480;-75
2021/01/26 07:33:25;;;;;;;;;10.00;10.00;;;;;7.52;68.25;100881.00;6227917;23;12136;-75
2021/01/26 07:36:15;;;;;;;;;6.75;6.75;;;;;7.21;69.68;100888.22;6244967;23;11467;-75
2021/01/26 07:38:54;;;;;;;;;10.25;10.25;;;;;7.34;68.77;100887.41;6254159;23;11438;-74
2021/01/26 07:42:12;;;;;;;;;11.00;11.00;;;;;7.10;68.94;100897.75;6243205;23;11538;-74
2021/01/26 07:45:15;;;;;;;;;11.25;9.50;;;;;7.36;68.30;100896.19;6253528;23;11442;-74
2021/01/26 07:47:49;;;;;;;;;18.50;16.75;;;;;7.41;68.55;100896.06;6223377;23;11480;-74
2021/01/26 07:50:39;;;;;;;;;6.50;5.50;;;;;7.53;68.44;100898.34;6254295;23;11584;-74
2021/01/26 07:53:43;;;;;;;;;12.00;12.00;;;;;7.47;68.21;100903.13;6254089;23;11417;-74
2021/01/26 07:56:24;;;;;;;;;10.00;10.00;;;;;7.47;68.75;100899.56;6227725;23;11530;-75
2021/01/26 07:59:28;;;;;;;;;12.50;12.50;;;;;7.45;68.86;100891.59;6243681;23;11468;-74
2021/01/26 08:02:20;;;;;;;;;9.00;7.00;;;;;7.59;68.37;100891.63;6245312;23;11496;-74
2021/01/26 08:04:48;;;;;;;;;7.00;7.00;;;;;7.59;69.04;100890.78;6252503;23;11499;-74
2021/01/26 08:07:32;;;;;;;;;8.50;5.00;;;;;7.63;69.29;100898.13;6253930;23;11430;-74
2021/01/26 08:10:02;;;;;;;;;11.00;11.00;;;;;7.91;68.68;100890.69;6252482;23;11465;-74
2021/01/26 08:12:30;;;;;;;;;11.00;11.00;;;;;8.16;67.94;100891.25;6218265;23;11492;-75
2021/01/26 08:15:41;;;;;;;;;3.00;3.00;;;;;8.16;67.87;100894.00;6242424;23;11400;-74
2021/01/26 08:18:25;;;;;;;;;11.00;10.25;;;;;8.41;67.75;100904.47;6218451;23;11492;-76
2021/01/26 08:21:26;;;;;;;;;13.50;10.75;;;;;8.61;66.72;100906.75;6245292;23;11477;-75
2021/01/26 08:24:28;;;;;;;;;11.75;10.75;;;;;8.63;66.16;100911.94;6244713;23;12105;-74
2021/01/26 08:27:48;;;;;;;;;7.25;7.25;;;;;8.53;65.87;100899.22;6222392;23;11455;-76
2021/01/26 08:30:29;;;;;;;;;7.75;7.75;;;;;8.53;66.58;100890.13;6247350;23;11367;-74
2021/01/26 08:33:31;;;;;;;;;11.00;11.00;;;;;8.78;66.33;100897.78;6245469;23;11392;-75
2021/01/26 08:36:37;;;;;;;;;6.00;6.00;;;;;8.95;65.63;100910.88;6246524;22;12212;-74
2021/01/26 08:39:45;;;;;;;;;7.25;7.25;;;;;8.81;65.73;100904.59;6245799;23;11401;-73
2021/01/26 08:42:43;;;;;;;;;11.25;10.75;;;;;8.67;65.84;100910.19;6246264;23;11380;-74
2021/01/26 08:45:24;;;;;;;;;10.00;10.00;;;;;8.57;66.33;100915.94;6245276;23;11452;-75
2021/01/26 08:48:23;;;;;;;;;13.75;9.75;;;;;8.56;65.85;100914.31;6245253;23;11385;-75
2021/01/26 08:50:59;;;;;;;;;11.00;11.00;;;;;8.57;66.86;100908.47;6255130;23;11384;-75
2021/01/26 08:53:57;;;;;;;;;10.75;10.75;;;;;8.26;67.16;100897.31;6225042;23;11408;-75
2021/01/26 08:56:52;;;;;;;;;11.00;11.00;;;;;8.34;67.23;100899.34;6244427;23;11466;-76
2021/01/26 08:59:49;;;;;;;;;10.25;10.25;;;;;8.34;67.30;100879.22;6226507;23;11476;-75
2021/01/26 09:02:38;;;;;;;;;11.25;10.75;;;;;8.46;66.94;100874.03;6246717;23;11457;-75
2021/01/26 09:05:36;;;;;;;;;8.75;7.25;;;;;8.22;67.61;100860.50;6254674;23;11427;-75
2021/01/26 09:08:06;;;;;;;;;14.50;10.00;;;;;8.38;66.67;100851.91;6255584;23;11424;-74
2021/01/26 09:10:54;;;;;;;;;9.50;9.50;;;;;8.38;66.97;100854.69;6245957;23;11443;-74
2021/01/26 09:13:50;;;;;;;;;7.75;7.75;;;;;8.51;68.78;100860.13;6245996;23;11443;-75
2021/01/26 09:16:47;;;;;;;;;27.75;25.25;;;;;8.47;67.66;100872.91;6246121;23;11478;-75
2021/01/26 09:19:52;;;;;;;;;21.00;18.00;;;;;9.64;77.81;100861.53;6245794;23;11538;-74
2021/01/26 09:22:32;;;;;;;;;11.00;11.00;;;;;9.45;74.48;100858.22;6255225;22;11537;-75
2021/01/26 09:24:59;;;;;;;;;8.75;8.75;;;;;9.24;68.38;100860.72;6255030;22;11438;-74
2021/01/26 09:28:01;;;;;;;;;11.25;11.25;;;;;9.07;66.25;100863.41;6246068;23;11530;-73
2021/01/26 09:31:00;;;;;;;;;15.25;15.25;;;;;8.93;65.82;100868.19;6244988;23;12241;-74
2021/01/26 09:33:29;;;;;;;;;10.50;8.00;;;;;8.86;65.92;100876.91;6254868;22;11519;-73
2021/01/26 09:36:25;;;;;;;;;10.75;10.75;;;;;8.63;66.02;100878.84;6245743;23;11404;-73
2021/01/26 09:38:52;;;;;;;;;11.75;11.75;;;;;8.72;66.15;100871.47;6244803;23;11405;-73
2021/01/26 09:41:48;;;;;;;;;21.25;17.25;;;;;8.85;65.77;100861.50;6245468;23;11471;-72
2021/01/26 09:45:03;;;;;;;;;20.00;20.00;;;;;8.67;65.61;100857.81;6244927;23;11473;-71
2021/01/26 09:47:30;;;;;;;;;9.25;9.25;;;;;8.54;66.13;100858.69;6254575;22;11598;-73
2021/01/26 09:50:28;;;;;;;;;13.75;13.75;;;;;8.61;66.29;100865.38;6245746;22;11416;-73
2021/01/26 09:53:24;;;;;;;;;15.00;11.00;;;;;8.46;66.71;100853.94;6245306;23;12229;-71
2021/01/26 09:56:21;;;;;;;;;12.00;12.00;;;;;8.52;66.62;100863.69;6245408;22;11475;-71
2021/01/26 09:59:06;;;;;;;;;17.25;16.50;;;;;8.57;66.74;100858.84;6244857;23;11523;-71
2021/01/26 10:02:05;;;;;;;;;21.00;20.00;;;;;8.50;67.08;100841.94;6244258;23;11458;-71
2021/01/26 10:05:09;;;;;;;;;19.25;16.25;;;;;8.54;67.35;100845.72;6245253;23;11454;-71
2021/01/26 10:08:12;;;;;;;;;10.50;10.50;;;;;8.61;66.87;100851.59;6244386;23;11487;-71
2021/01/26 10:11:29;;;;;;;;;9.50;9.50;;;;;8.59;67.38;100845.59;6244186;23;11420;-71
2021/01/26 10:14:19;;;;;;;;;14.00;14.00;;;;;8.62;67.17;100853.22;6244955;23;11426;-71
2021/01/26 10:17:18;;;;;;;;;18.00;18.00;;;;;8.65;67.42;100840.75;6243939;23;11440;-73
2021/01/26 10:20:22;;;;;;;;;8.25;8.25;;;;;8.56;67.29;100846.22;6224147;23;11432;-74
2021/01/26 10:23:12;;;;;;;;;14.25;12.50;;;;;8.98;67.01;100837.72;6222106;23;11397;-74
2021/01/26 10:26:08;;;;;;;;;9.00;8.00;;;;;8.90;66.92;100825.50;6243855;23;11469;-73
2021/01/26 10:29:07;;;;;;;;;10.75;10.75;;;;;9.08;66.35;100838.25;6244338;23;11484;-74
2021/01/26 10:32:04;;;;;;;;;13.00;13.00;;;;;9.05;66.33;100827.06;6244651;23;11406;-73
2021/01/26 10:34:31;;;;;;;;;11.50;11.50;;;;;9.28;66.33;100813.97;6253782;23;11413;-73
2021/01/26 10:37:18;;;;;;;;;13.25;12.50;;;;;9.16;66.98;100809.88;6245986;23;11435;-73
2021/01/26 10:39:47;;;;;;;;;12.00;11.25;;;;;9.33;66.24;100802.81;6254313;23;11390;-74
2021/01/26 10:42:24;;;;;;;;;11.50;11.00;;;;;9.41;65.91;100813.06;6254338;23;11442;-73
2021/01/26 10:45:00;;;;;;;;;13.50;12.00;;;;;9.48;66.25;100814.22;6220387;23;11404;-73
2021/01/26 10:47:34;;;;;;;;;11.00;11.00;;;;;9.53;65.78;100806.94;6253030;23;11412;-74
2021/01/26 10:50:27;;;;;;;;;11.50;11.50;;;;;9.73;65.51;100795.25;6228081;23;11471;-74
2021/01/26 10:53:02;;;;;;;;;10.00;10.00;;;;;9.79;65.31;100782.94;6245747;23;11413;-74
2021/01/26 10:55:33;;;;;;;;;11.00;11.00;;;;;9.88;64.81;100775.47;6245397;23;11406;-73
2021/01/26 10:58:00;;;;;;;;;12.50;11.50;;;;;9.89;64.50;100773.50;6254601;23;12148;-73
2021/01/26 11:00:56;;;;;;;;;12.00;11.75;;;;;10.02;64.19;100767.81;6244023;23;11507;-73
2021/01/26 11:03:53;;;;;;;;;16.25;15.50;;;;;10.05;64.22;100773.88;6245167;23;11407;-74
2021/01/26 11:06:22;;;;;;;;;15.75;15.75;;;;;10.08;63.79;100776.78;6245890;23;11409;-74
2021/01/26 11:08:52;;;;;;;;;15.50;15.50;;;;;10.18;63.70;100789.44;6254277;23;11415;-74
2021/01/26 11:11:22;;;;;;;;;17.25;17.25;;;;;10.15;63.76;100799.22;6245332;23;11354;-74
2021/01/26 11:14:00;;;;;;;;;12.50;12.50;;;;;10.13;63.59;100797.91;6245770;23;11134;-74
2021/01/26 11:16:27;;;;;;;;;8.00;8.00;;;;;10.05;63.64;100796.78;6245754;23;11106;-74
2021/01/26 11:19:26;;;;;;;;;9.75;8.50;;;;;10.03;63.66;100801.78;6244850;22;11309;-73
2021/01/26 11:21:53;;;;;;;;;9.25;9.25;;;;;10.09;63.32;100796.94;6227294;23;11147;-73
2021/01/26 11:24:20;;;;;;;;;12.75;12.75;;;;;10.17;63.38;100780.34;6254063;23;11052;-74
2021/01/26 11:27:15;;;;;;;;;9.00;8.00;;;;;10.28;62.86;100761.53;6243795;23;10964;-74
2021/01/26 11:30:14;;;;;;;;;8.50;8.50;;;;;10.10;63.40;100755.16;6243987;23;11805;-74
2021/01/26 11:32:42;;;;;;;;;7.75;7.75;;;;;10.03;63.46;100761.16;6245105;23;10994;-74
2021/01/26 11:35:37;;;;;;;;;9.00;9.00;;;;;10.21;63.44;100748.16;6243663;23;11004;-74
2021/01/26 11:38:28;;;;;;;;;7.00;7.00;;;;;10.28;63.49;100747.69;6244780;23;11276;-73
2021/01/26 11:40:56;;;;;;;;;11.00;8.00;;;;;10.33;63.35;100747.50;6254360;23;11740;-74
2021/01/26 11:43:23;;;;;;;;;7.75;7.75;;;;;10.30;64.10;100740.69;6245697;23;10765;-73
2021/01/26 11:46:00;;;;;;;;;16.50;14.00;;;;;10.34;63.69;100743.59;6253544;23;10996;-73
2021/01/26 11:48:27;;;;;;;;;10.50;9.00;;;;;10.24;64.00;100753.06;6244451;23;11174;-74
2021/01/26 11:50:56;;;;;;;;;12.50;11.75;;;;;10.23;64.21;100762.50;6245335;23;11021;-73
2021/01/26 11:53:23;;;;;;;;;13.75;13.00;;;;;10.12;64.96;100777.75;6254135;23;11135;-74
2021/01/26 11:56:00;;;;;;;;;13.00;13.00;;;;;10.22;64.60;100776.63;6253728;23;10883;-73
2021/01/26 11:58:28;;;;;;;;;12.75;12.75;;;;;10.21;65.02;100775.00;6261563;23;10862;-73
2021/01/26 12:01:23;;;;;;;;;12.00;10.00;;;;;10.23;65.31;100786.56;6247308;23;10884;-73
2021/01/26 12:03:59;;;;;;;;;12.00;12.00;;;;;10.21;66.03;100775.81;6256538;23;10900;-73
2021/01/26 12:06:26;;;;;;;;;9.50;8.75;;;;;10.18;66.71;100772.84;6256210;23;10956;-73
2021/01/26 12:08:56;;;;;;;;;11.00;11.00;;;;;9.98;67.52;100777.91;6256048;23;11040;-73
2021/01/26 12:11:23;;;;;;;;;11.00;11.00;;;;;10.13;67.79;100750.94;6255994;23;11129;-73
2021/01/26 12:13:50;;;;;;;;;11.75;11.75;;;;;10.14;67.98;100745.06;6229127;23;11102;-73
2021/01/26 12:16:17;;;;;;;;;13.00;13.00;;;;;9.98;68.36;100744.75;6255911;23;11152;-73
2021/01/26 12:18:45;;;;;;;;;11.75;11.75;;;;;9.98;68.72;100750.28;6247128;23;11053;-72
2021/01/26 12:21:16;;;;;;;;;11.75;11.00;;;;;9.80;69.32;100753.34;6247447;23;11108;-72
2021/01/26 12:24:12;;;;;;;;;9.00;9.00;;;;;9.83;69.49;100756.31;6244456;23;11127;-73
2021/01/26 12:26:39;;;;;;;;;13.00;13.00;;;;;9.73;69.90;100754.66;6255710;23;10943;-72
2021/01/26 12:29:06;;;;;;;;;13.25;13.25;;;;;9.92;69.28;100754.34;6246941;23;10974;-73
2021/01/26 12:31:33;;;;;;;;;12.00;12.00;;;;;9.77;70.08;100745.72;6254647;23;11412;-73
2021/01/26 12:34:32;;;;;;;;;13.00;13.00;;;;;9.73;70.28;100731.75;6225019;23;11439;-74
2021/01/26 12:37:27;;;;;;;;;10.50;10.50;;;;;9.69;70.58;100728.81;6245457;23;11836;-74
2021/01/26 12:40:24;;;;;;;;;11.25;10.50;;;;;9.59;71.16;100718.09;6223725;23;11945;-74
2021/01/26 12:42:51;;;;;;;;;17.25;16.75;;;;;9.68;71.59;100724.44;6255671;23;11092;-74
2021/01/26 12:45:29;;;;;;;;;15.00;13.75;;;;;9.58;71.80;100721.16;6254374;23;11423;-74
2021/01/26 12:47:58;;;;;;;;;14.00;14.00;;;;;9.66;71.78;100717.59;6247265;23;11429;-74
2021/01/26 12:50:54;;;;;;;;;18.50;16.25;;;;;9.64;72.21;100717.94;6245386;23;11428;-74
2021/01/26 12:53:49;;;;;;;;;17.00;16.75;;;;;9.69;72.02;100709.50;6244985;23;11470;-73
2021/01/26 12:56:16;;;;;;;;;12.25;11.50;;;;;9.57;72.65;100711.25;6255695;23;11411;-74
2021/01/26 12:58:43;;;;;;;;;15.00;13.25;;;;;9.63;72.36;100705.25;6256156;23;11096;-73